sensor_id;sensor_type;location;lat;lon;timestamp;pressure;altitude;pressure_sealevel;temperature;humidity
36138;BME280;67787;50.074;21.904;2023-02-19T14:33:57;98702.92;;;3.92;75.12
36138;BME280;67787;50.074;21.904;2023-02-19T14:36:34;98706.32;;;3.84;75.20
36138;BME280;67787;50.074;21.904;2023-02-19T14:39:14;98714.53;;;3.77;75.06
36138;BME280;67787;50.074;21.904;2023-02-19T14:41:50;98712.55;;;3.71;75.25
36138;BME280;67787;50.074;21.904;2023-02-19T14:44:25;98715.15;;;3.65;75.08
36138;BME280;67787;50.074;21.904;2023-02-19T14:47:06;98718.45;;;3.62;75.37
36138;BME280;67787;50.074;21.904;2023-02-19T14:49:43;98719.83;;;3.59;75.57
36138;BME280;67787;50.074;21.904;2023-02-19T14:54:58;98718.76;;;3.55;75.32
36138;BME280;67787;50.074;21.904;2023-02-19T14:57:30;98724.08;;;3.54;75.33
36138;BME280;67787;50.074;21.904;2023-02-19T15:00:03;98728.65;;;3.50;75.43
36138;BME280;67787;50.074;21.904;2023-02-19T15:02:31;98730.46;;;3.46;75.52
36138;BME280;67787;50.074;21.904;2023-02-19T15:04:59;98732.52;;;3.43;75.55
36138;BME280;67787;50.074;21.904;2023-02-19T15:07:31;98734.92;;;3.40;75.61
36138;BME280;67787;50.074;21.904;2023-02-19T15:10:01;98736.06;;;3.35;75.49
36138;BME280;67787;50.074;21.904;2023-02-19T15:12:43;98738.89;;;3.31;75.51
36138;BME280;67787;50.074;21.904;2023-02-19T15:15:20;98744.01;;;3.27;75.95
36138;BME280;67787;50.074;21.904;2023-02-19T15:17:50;98745.63;;;3.22;75.82
36138;BME280;67787;50.074;21.904;2023-02-19T15:20:22;98756.30;;;3.19;76.13
36138;BME280;67787;50.074;21.904;2023-02-19T15:22:52;98759.54;;;3.17;76.24
36138;BME280;67787;50.074;21.904;2023-02-19T15:25:23;98762.60;;;3.15;76.00
36138;BME280;67787;50.074;21.904;2023-02-19T15:27:53;98769.19;;;3.12;76.72
36138;BME280;67787;50.074;21.904;2023-02-19T15:30:26;98775.10;;;3.10;76.39
36138;BME280;67787;50.074;21.904;2023-02-19T15:32:58;98776.82;;;3.07;76.27
36138;BME280;67787;50.074;21.904;2023-02-19T15:35:28;98784.90;;;3.06;76.44
36138;BME280;67787;50.074;21.904;2023-02-19T15:37:59;98785.17;;;3.04;76.11
36138;BME280;67787;50.074;21.904;2023-02-19T15:40:29;98796.63;;;3.03;76.64
36138;BME280;67787;50.074;21.904;2023-02-19T15:42:58;98801.79;;;3.01;76.46
36138;BME280;67787;50.074;21.904;2023-02-19T15:45:29;98808.33;;;3.00;76.56
36138;BME280;67787;50.074;21.904;2023-02-19T15:48:10;98808.34;;;3.00;76.44
36138;BME280;67787;50.074;21.904;2023-02-19T15:50:49;98814.14;;;2.99;76.41
36138;BME280;67787;50.074;21.904;2023-02-19T15:53:21;98817.92;;;2.97;76.45
36138;BME280;67787;50.074;21.904;2023-02-19T15:56:16;98822.38;;;2.95;76.48
36138;BME280;67787;50.074;21.904;2023-02-19T16:01:37;98830.79;;;2.91;76.48
36138;BME280;67787;50.074;21.904;2023-02-19T16:04:12;98825.00;;;2.91;75.89
36138;BME280;67787;50.074;21.904;2023-02-19T16:06:54;98832.92;;;2.90;76.31
36138;BME280;67787;50.074;21.904;2023-02-19T16:09:37;98838.02;;;2.90;76.02
36138;BME280;67787;50.074;21.904;2023-02-19T16:12:19;98850.21;;;2.91;76.39
36138;BME280;67787;50.074;21.904;2023-02-19T16:14:48;98858.08;;;2.91;76.08
36138;BME280;67787;50.074;21.904;2023-02-19T16:17:19;98865.15;;;2.90;75.97
36138;BME280;67787;50.074;21.904;2023-02-19T16:19:55;98870.48;;;2.85;75.99
36138;BME280;67787;50.074;21.904;2023-02-19T16:22:26;98875.42;;;2.80;76.20
36138;BME280;67787;50.074;21.904;2023-02-19T16:24:57;98889.68;;;2.74;75.87
36138;BME280;67787;50.074;21.904;2023-02-19T16:27:35;98891.90;;;2.67;75.76
36138;BME280;67787;50.074;21.904;2023-02-19T16:30:31;98901.55;;;2.58;75.85
36138;BME280;67787;50.074;21.904;2023-02-19T16:36:22;98905.27;;;2.48;75.26
36138;BME280;67787;50.074;21.904;2023-02-19T16:47:23;98923.98;;;2.28;75.77
36138;BME280;67787;50.074;21.904;2023-02-19T16:49:53;98927.06;;;2.25;75.49
36138;BME280;67787;50.074;21.904;2023-02-19T16:52:24;98928.42;;;2.22;75.27
36138;BME280;67787;50.074;21.904;2023-02-19T16:54:54;98935.85;;;2.20;75.59
36138;BME280;67787;50.074;21.904;2023-02-19T16:57:23;98938.08;;;2.17;75.36
36138;BME280;67787;50.074;21.904;2023-02-19T16:59:51;98942.47;;;2.12;75.12
36138;BME280;67787;50.074;21.904;2023-02-19T17:02:21;98946.67;;;2.07;75.04
36138;BME280;67787;50.074;21.904;2023-02-19T17:04:52;98952.48;;;2.02;75.48
36138;BME280;67787;50.074;21.904;2023-02-19T17:07:22;98954.77;;;1.98;75.52
36138;BME280;67787;50.074;21.904;2023-02-19T17:09:50;98955.41;;;1.94;75.18
36138;BME280;67787;50.074;21.904;2023-02-19T17:12:21;98952.41;;;1.90;75.13
36138;BME280;67787;50.074;21.904;2023-02-19T17:14:50;98957.95;;;1.87;75.51
36138;BME280;67787;50.074;21.904;2023-02-19T17:17:22;98961.05;;;1.84;75.36
36138;BME280;67787;50.074;21.904;2023-02-19T17:19:50;98967.81;;;1.81;75.27
36138;BME280;67787;50.074;21.904;2023-02-19T17:22:18;98974.38;;;1.79;75.23
36138;BME280;67787;50.074;21.904;2023-02-19T17:24:46;98978.64;;;1.76;75.50
36138;BME280;67787;50.074;21.904;2023-02-19T17:27:15;98986.25;;;1.74;75.49
36138;BME280;67787;50.074;21.904;2023-02-19T17:29:43;98992.09;;;1.72;75.40
36138;BME280;67787;50.074;21.904;2023-02-19T17:32:12;98993.02;;;1.70;75.44
36138;BME280;67787;50.074;21.904;2023-02-19T17:34:41;99000.37;;;1.70;75.34
36138;BME280;67787;50.074;21.904;2023-02-19T17:37:36;99001.77;;;1.70;75.25
36138;BME280;67787;50.074;21.904;2023-02-19T17:40:18;99007.89;;;1.70;75.44
36138;BME280;67787;50.074;21.904;2023-02-19T17:43:00;99017.38;;;1.69;75.35
36138;BME280;67787;50.074;21.904;2023-02-19T17:45:30;99021.33;;;1.66;75.17
36138;BME280;67787;50.074;21.904;2023-02-19T17:47:58;99028.70;;;1.60;75.24
36138;BME280;67787;50.074;21.904;2023-02-19T17:50:31;99038.95;;;1.57;75.58
36138;BME280;67787;50.074;21.904;2023-02-19T17:52:59;99042.23;;;1.54;75.29
36138;BME280;67787;50.074;21.904;2023-02-19T17:55:27;99042.15;;;1.51;75.47
36138;BME280;67787;50.074;21.904;2023-02-19T17:57:55;99046.35;;;1.50;75.32
36138;BME280;67787;50.074;21.904;2023-02-19T18:00:27;99052.69;;;1.49;75.22
36138;BME280;67787;50.074;21.904;2023-02-19T18:02:55;99057.31;;;1.47;75.13
36138;BME280;67787;50.074;21.904;2023-02-19T18:05:23;99060.86;;;1.45;75.17
36138;BME280;67787;50.074;21.904;2023-02-19T18:07:51;99064.40;;;1.44;74.93
36138;BME280;67787;50.074;21.904;2023-02-19T18:10:20;99063.39;;;1.43;75.25
36138;BME280;67787;50.074;21.904;2023-02-19T18:12:52;99064.73;;;1.44;75.15
36138;BME280;67787;50.074;21.904;2023-02-19T18:15:23;99068.44;;;1.43;75.01
36138;BME280;67787;50.074;21.904;2023-02-19T18:17:54;99076.73;;;1.42;75.19
36138;BME280;67787;50.074;21.904;2023-02-19T18:20:25;99079.18;;;1.42;75.26
36138;BME280;67787;50.074;21.904;2023-02-19T18:22:55;99085.29;;;1.42;75.09
36138;BME280;67787;50.074;21.904;2023-02-19T18:25:23;99088.84;;;1.40;75.06
36138;BME280;67787;50.074;21.904;2023-02-19T18:27:53;99096.34;;;1.35;75.12
36138;BME280;67787;50.074;21.904;2023-02-19T18:30:22;99102.46;;;1.30;74.89
36138;BME280;67787;50.074;21.904;2023-02-19T18:32:51;99110.98;;;1.25;74.92
36138;BME280;67787;50.074;21.904;2023-02-19T18:35:19;99115.02;;;1.21;74.76
36138;BME280;67787;50.074;21.904;2023-02-19T18:37:49;99117.90;;;1.18;74.92
36138;BME280;67787;50.074;21.904;2023-02-19T18:40:21;99124.65;;;1.15;75.23
36138;BME280;67787;50.074;21.904;2023-02-19T18:42:50;99126.77;;;1.13;75.22
36138;BME280;67787;50.074;21.904;2023-02-19T18:45:21;99127.70;;;1.12;75.10
36138;BME280;67787;50.074;21.904;2023-02-19T18:47:53;99127.15;;;1.12;75.26
36138;BME280;67787;50.074;21.904;2023-02-19T18:50:22;99123.31;;;1.12;75.09
36138;BME280;67787;50.074;21.904;2023-02-19T18:52:53;99124.38;;;1.12;75.33
36138;BME280;67787;50.074;21.904;2023-02-19T18:55:21;99129.05;;;1.13;75.11
36138;BME280;67787;50.074;21.904;2023-02-19T18:57:51;99132.51;;;1.14;75.35
36138;BME280;67787;50.074;21.904;2023-02-19T19:00:23;99132.92;;;1.17;75.25
36138;BME280;67787;50.074;21.904;2023-02-19T19:02:58;99139.04;;;1.23;75.31
36138;BME280;67787;50.074;21.904;2023-02-19T19:05:27;99155.56;;;1.31;75.33
36138;BME280;67787;50.074;21.904;2023-02-19T19:07:56;99161.30;;;1.37;75.34
36138;BME280;67787;50.074;21.904;2023-02-19T19:10:28;99169.89;;;1.41;75.38
36138;BME280;67787;50.074;21.904;2023-02-19T19:12:58;99168.35;;;1.45;75.27
36138;BME280;67787;50.074;21.904;2023-02-19T19:15:29;99173.13;;;1.48;75.10
36138;BME280;67787;50.074;21.904;2023-02-19T19:17:58;99173.57;;;1.51;75.21
36138;BME280;67787;50.074;21.904;2023-02-19T19:20:29;99179.48;;;1.53;75.10
36138;BME280;67787;50.074;21.904;2023-02-19T19:22:59;99183.42;;;1.55;75.04
36138;BME280;67787;50.074;21.904;2023-02-19T19:25:28;99184.25;;;1.56;74.97
36138;BME280;67787;50.074;21.904;2023-02-19T19:27:56;99187.49;;;1.58;74.78
36138;BME280;67787;50.074;21.904;2023-02-19T19:30:25;99188.86;;;1.59;74.83
36138;BME280;67787;50.074;21.904;2023-02-19T19:32:53;99188.48;;;1.60;75.10
36138;BME280;67787;50.074;21.904;2023-02-19T19:35:21;99187.39;;;1.61;74.67
36138;BME280;67787;50.074;21.904;2023-02-19T19:37:49;99186.42;;;1.63;74.76
36138;BME280;67787;50.074;21.904;2023-02-19T19:40:22;99187.79;;;1.65;74.98
36138;BME280;67787;50.074;21.904;2023-02-19T19:42:51;99184.80;;;1.65;74.55
36138;BME280;67787;50.074;21.904;2023-02-19T19:45:19;99184.31;;;1.65;74.75
36138;BME280;67787;50.074;21.904;2023-02-19T19:47:48;99185.52;;;1.64;74.71
36138;BME280;67787;50.074;21.904;2023-02-19T19:50:16;99188.84;;;1.65;74.59
36138;BME280;67787;50.074;21.904;2023-02-19T19:52:45;99188.63;;;1.66;74.67
36138;BME280;67787;50.074;21.904;2023-02-19T19:55:15;99190.16;;;1.67;74.84
36138;BME280;67787;50.074;21.904;2023-02-19T19:57:43;99198.16;;;1.69;74.77
36138;BME280;67787;50.074;21.904;2023-02-19T20:00:13;99198.30;;;1.70;74.57
36138;BME280;67787;50.074;21.904;2023-02-19T20:02:43;99195.81;;;1.71;74.33
36138;BME280;67787;50.074;21.904;2023-02-19T20:05:13;99198.73;;;1.72;74.64
36138;BME280;67787;50.074;21.904;2023-02-19T20:07:41;99201.16;;;1.73;74.70
36138;BME280;67787;50.074;21.904;2023-02-19T20:10:12;99208.47;;;1.74;74.77
36138;BME280;67787;50.074;21.904;2023-02-19T20:12:40;99209.69;;;1.74;74.62
36138;BME280;67787;50.074;21.904;2023-02-19T20:15:08;99209.36;;;1.73;74.71
36138;BME280;67787;50.074;21.904;2023-02-19T20:17:37;99219.33;;;1.73;74.71
36138;BME280;67787;50.074;21.904;2023-02-19T20:20:05;99223.52;;;1.74;74.71
36138;BME280;67787;50.074;21.904;2023-02-19T20:22:34;99225.27;;;1.73;74.60
36138;BME280;67787;50.074;21.904;2023-02-19T20:25:04;99222.34;;;1.72;74.62
36138;BME280;67787;50.074;21.904;2023-02-19T20:27:32;99229.15;;;1.72;74.55
36138;BME280;67787;50.074;21.904;2023-02-19T20:30:00;99234.38;;;1.73;74.69
36138;BME280;67787;50.074;21.904;2023-02-19T20:32:29;99236.13;;;1.72;74.39
36138;BME280;67787;50.074;21.904;2023-02-19T20:34:57;99231.76;;;1.73;74.54
36138;BME280;67787;50.074;21.904;2023-02-19T20:37:25;99234.05;;;1.72;74.56
36138;BME280;67787;50.074;21.904;2023-02-19T20:39:53;99242.62;;;1.72;74.34
36138;BME280;67787;50.074;21.904;2023-02-19T20:42:21;99242.48;;;1.71;74.34
36138;BME280;67787;50.074;21.904;2023-02-19T20:44:49;99238.80;;;1.71;74.34
36138;BME280;67787;50.074;21.904;2023-02-19T20:47:17;99240.41;;;1.70;74.19
36138;BME280;67787;50.074;21.904;2023-02-19T20:49:46;99242.73;;;1.69;74.23
36138;BME280;67787;50.074;21.904;2023-02-19T20:52:15;99239.66;;;1.67;74.23
36138;BME280;67787;50.074;21.904;2023-02-19T20:54:44;99245.44;;;1.66;74.32
36138;BME280;67787;50.074;21.904;2023-02-19T20:57:13;99249.13;;;1.66;74.08
36138;BME280;67787;50.074;21.904;2023-02-19T20:59:41;99247.13;;;1.62;73.97
36138;BME280;67787;50.074;21.904;2023-02-19T21:02:18;99246.63;;;1.62;74.19
36138;BME280;67787;50.074;21.904;2023-02-19T21:04:46;99259.27;;;1.60;74.13
36138;BME280;67787;50.074;21.904;2023-02-19T21:07:15;99263.16;;;1.59;74.24
36138;BME280;67787;50.074;21.904;2023-02-19T21:09:44;99260.27;;;1.56;74.25
36138;BME280;67787;50.074;21.904;2023-02-19T21:12:12;99264.79;;;1.52;74.07
36138;BME280;67787;50.074;21.904;2023-02-19T21:14:40;99267.38;;;1.47;74.10
36138;BME280;67787;50.074;21.904;2023-02-19T21:17:09;99270.33;;;1.42;74.05
36138;BME280;67787;50.074;21.904;2023-02-19T21:19:36;99275.89;;;1.38;74.24
36138;BME280;67787;50.074;21.904;2023-02-19T21:22:05;99279.28;;;1.35;73.95
36138;BME280;67787;50.074;21.904;2023-02-19T21:24:33;99283.77;;;1.31;73.98
36138;BME280;67787;50.074;21.904;2023-02-19T21:27:01;99286.02;;;1.27;74.01
36138;BME280;67787;50.074;21.904;2023-02-19T21:29:30;99286.70;;;1.22;74.10
36138;BME280;67787;50.074;21.904;2023-02-19T21:31:58;99295.43;;;1.16;74.08
36138;BME280;67787;50.074;21.904;2023-02-19T21:34:28;99300.65;;;1.11;74.01
36138;BME280;67787;50.074;21.904;2023-02-19T21:36:56;99308.83;;;1.06;74.17
36138;BME280;67787;50.074;21.904;2023-02-19T21:39:25;99309.50;;;1.01;73.92
36138;BME280;67787;50.074;21.904;2023-02-19T21:41:54;99310.36;;;0.95;73.98
36138;BME280;67787;50.074;21.904;2023-02-19T21:44:22;99313.13;;;0.90;74.14
36138;BME280;67787;50.074;21.904;2023-02-19T21:46:50;99317.42;;;0.86;74.14
36138;BME280;67787;50.074;21.904;2023-02-19T21:49:18;99314.92;;;0.82;73.92
36138;BME280;67787;50.074;21.904;2023-02-19T21:51:46;99320.94;;;0.80;74.07
36138;BME280;67787;50.074;21.904;2023-02-19T21:54:19;99329.77;;;0.77;74.01
36138;BME280;67787;50.074;21.904;2023-02-19T21:56:48;99334.86;;;0.75;74.10
36138;BME280;67787;50.074;21.904;2023-02-19T21:59:17;99333.23;;;0.70;73.96
36138;BME280;67787;50.074;21.904;2023-02-19T22:01:46;99338.24;;;0.66;74.09
36138;BME280;67787;50.074;21.904;2023-02-19T22:04:16;99339.55;;;0.63;73.97
36138;BME280;67787;50.074;21.904;2023-02-19T22:06:44;99341.59;;;0.59;73.99
36138;BME280;67787;50.074;21.904;2023-02-19T22:09:13;99347.72;;;0.58;73.99
36138;BME280;67787;50.074;21.904;2023-02-19T22:11:41;99351.63;;;0.55;73.91
36138;BME280;67787;50.074;21.904;2023-02-19T22:14:10;99352.70;;;0.55;73.83
36138;BME280;67787;50.074;21.904;2023-02-19T22:16:38;99354.52;;;0.52;73.94
36138;BME280;67787;50.074;21.904;2023-02-19T22:19:06;99356.33;;;0.49;74.00
36138;BME280;67787;50.074;21.904;2023-02-19T22:21:34;99357.10;;;0.46;73.89
36138;BME280;67787;50.074;21.904;2023-02-19T22:24:02;99352.84;;;0.42;73.87
36138;BME280;67787;50.074;21.904;2023-02-19T22:26:32;99351.86;;;0.40;73.92
36138;BME280;67787;50.074;21.904;2023-02-19T22:29:02;99356.27;;;0.38;73.96
36138;BME280;67787;50.074;21.904;2023-02-19T22:31:34;99355.27;;;0.36;73.79
36138;BME280;67787;50.074;21.904;2023-02-19T22:34:03;99357.25;;;0.34;73.93
36138;BME280;67787;50.074;21.904;2023-02-19T22:36:33;99361.85;;;0.32;73.96
36138;BME280;67787;50.074;21.904;2023-02-19T22:39:06;99363.98;;;0.30;73.87
36138;BME280;67787;50.074;21.904;2023-02-19T22:41:34;99368.74;;;0.27;73.88
36138;BME280;67787;50.074;21.904;2023-02-19T22:44:02;99368.47;;;0.25;73.86
36138;BME280;67787;50.074;21.904;2023-02-19T22:46:30;99375.64;;;0.24;73.76
36138;BME280;67787;50.074;21.904;2023-02-19T22:49:01;99380.72;;;0.23;73.86
36138;BME280;67787;50.074;21.904;2023-02-19T22:51:29;99380.77;;;0.21;73.90
36138;BME280;67787;50.074;21.904;2023-02-19T22:53:58;99384.33;;;0.19;73.90
36138;BME280;67787;50.074;21.904;2023-02-19T22:56:28;99389.94;;;0.17;73.84
36138;BME280;67787;50.074;21.904;2023-02-19T22:58:56;99392.42;;;0.15;73.77
36138;BME280;67787;50.074;21.904;2023-02-19T23:01:25;99397.02;;;0.13;73.76
36138;BME280;67787;50.074;21.904;2023-02-19T23:03:56;99405.10;;;0.11;73.83
36138;BME280;67787;50.074;21.904;2023-02-19T23:06:29;99409.85;;;0.09;73.89
36138;BME280;67787;50.074;21.904;2023-02-19T23:09:01;99408.16;;;0.07;73.89
36138;BME280;67787;50.074;21.904;2023-02-19T23:11:33;99408.04;;;0.05;74.04
36138;BME280;67787;50.074;21.904;2023-02-19T23:14:01;99413.51;;;0.02;73.96
36138;BME280;67787;50.074;21.904;2023-02-19T23:16:30;99418.73;;;0.03;73.90
36138;BME280;67787;50.074;21.904;2023-02-19T23:19:07;99418.24;;;0.01;73.93
36138;BME280;67787;50.074;21.904;2023-02-19T23:21:39;99420.74;;;-0.02;73.80
36138;BME280;67787;50.074;21.904;2023-02-19T23:24:08;99413.67;;;-0.05;73.84
36138;BME280;67787;50.074;21.904;2023-02-19T23:26:44;99417.02;;;-0.07;73.91
36138;BME280;67787;50.074;21.904;2023-02-19T23:29:17;99415.86;;;-0.09;74.00
36138;BME280;67787;50.074;21.904;2023-02-19T23:31:46;99420.09;;;-0.11;73.90
36138;BME280;67787;50.074;21.904;2023-02-19T23:34:14;99418.20;;;-0.12;74.03
36138;BME280;67787;50.074;21.904;2023-02-19T23:36:44;99416.98;;;-0.12;74.02
36138;BME280;67787;50.074;21.904;2023-02-19T23:39:16;99417.19;;;-0.14;74.00
36138;BME280;67787;50.074;21.904;2023-02-19T23:41:46;99419.85;;;-0.16;73.94
36138;BME280;67787;50.074;21.904;2023-02-19T23:44:15;99433.45;;;-0.17;74.00
36138;BME280;67787;50.074;21.904;2023-02-19T23:46:43;99425.27;;;-0.17;73.95
36138;BME280;67787;50.074;21.904;2023-02-19T23:49:12;99419.88;;;-0.17;74.02
36138;BME280;67787;50.074;21.904;2023-02-19T23:51:40;99425.30;;;-0.18;73.92
36138;BME280;67787;50.074;21.904;2023-02-19T23:54:09;99429.48;;;-0.19;74.01
36138;BME280;67787;50.074;21.904;2023-02-19T23:56:37;99423.55;;;-0.18;73.90
36138;BME280;67787;50.074;21.904;2023-02-19T23:59:06;99428.81;;;-0.20;73.87
